Temp: 19.1°C   Baro: 1015.1mb
  Wind: 4.9mph   Dir: WSW (247°)
  Rain: 0.0mm (0.0mm/hr)
  Solar: 591W/m2  Hum: 67%
 
Bath Spa Weather Station Historical Data
Daily Summary for December 03, 2019 Units:  Metric    English   Both
Daily Weekly Monthly Yearly Custom
  High: Low: Average:
Temperature: 9.9 °C 1.4 °C 5.2 °C
Dew Point: 5.3 °C 0.1 °C 2.8 °C
Humidity: 93% 63.4% 85%
Wind Speed: 11.1km/h 0km/h 1.3km/h
Wind Gust: 24.1km/h - -
Wind- - WSW
Pressure: 1031.4 hPa 1022.6 hPa -
Precipitation: 0 mm    
Historical Graphs
 
 
Tabular Data for December 03, 2019
Time Temperature Dew Point Pressure Wind Wind Speed Wind Gust Humidity Rainfall Rate (Hourly) solar
00:04 2.6 °C 1.4 °C 1031.4 hPa Calm     92% 0 mm 0 W/m2
00:09 2.6 °C 1.4 °C 1031.4 hPa Calm     92% 0 mm 0 W/m2
00:14 2.7 °C 1.5 °C 1031.4 hPa Calm     92% 0 mm 0 W/m2
00:19 2.7 °C 1.6 °C 1031.4 hPa Calm     92% 0 mm 0 W/m2
00:24 2.8 °C 1.6 °C 1031.4 hPa Calm     92% 0 mm 0 W/m2
00:29 2.8 °C 1.6 °C 1031.4 hPa Calm     92% 0 mm 0 W/m2
00:34 2.8 °C 1.6 °C 1031.4 hPa Calm     92% 0 mm 0 W/m2
00:39 2.8 °C 1.6 °C 1031 hPa Calm     92% 0 mm 0 W/m2
00:44 2.7 °C 1.6 °C 1031 hPa Calm     92% 0 mm 0 W/m2
00:49 2.8 °C 1.6 °C 1031 hPa Calm     92% 0 mm 0 W/m2
00:54 2.8 °C 1.6 °C 1031 hPa Calm     92% 0 mm 0 W/m2
00:59 2.8 °C 1.6 °C 1031 hPa Calm     92% 0 mm 0 W/m2
01:04 2.8 °C 1.6 °C 1031 hPa Calm     92% 0 mm 0 W/m2
01:09 2.9 °C 1.7 °C 1031 hPa Calm     92% 0 mm 0 W/m2
01:14 2.9 °C 1.8 °C 1031 hPa Calm     92.2% 0 mm 0 W/m2
01:19 2.9 °C 1.7 °C 1031 hPa Calm     92% 0 mm 0 W/m2
01:24 2.9 °C 1.8 °C 1031 hPa Calm     92.2% 0 mm 0 W/m2
01:29 2.9 °C 1.7 °C 1030.7 hPa Calm     92% 0 mm 0 W/m2
01:34 2.9 °C 1.7 °C 1031 hPa Calm     92% 0 mm 0 W/m2
01:39 3 °C 1.9 °C 1031 hPa Calm     92.6% 0 mm 0 W/m2
01:44 3.1 °C 1.8 °C 1031 hPa Calm     92% 0 mm 0 W/m2
01:49 3 °C 1.9 °C 1031 hPa Calm     92.4% 0 mm 0 W/m2
01:54 3 °C 1.8 °C 1031 hPa Calm     92.2% 0 mm 0 W/m2
01:59 3 °C 1.8 °C 1030.7 hPa Calm     92% 0 mm 0 W/m2
02:04 3.1 °C 1.9 °C 1030.7 hPa Calm     92.2% 0 mm 0 W/m2
02:09 3.1 °C 1.9 °C 1030.7 hPa Calm     92% 0 mm 0 W/m2
02:14 3.1 °C 1.9 °C 1030.7 hPa Calm     92% 0 mm 0 W/m2
02:19 3.2 °C 1.9 °C 1030.7 hPa Calm     92% 0 mm 0 W/m2
02:24 3.1 °C 1.9 °C 1030.4 hPa Calm     92% 0 mm 0 W/m2
02:29 3 °C 1.8 °C 1030.4 hPa Calm     92% 0 mm 0 W/m2
02:34 3 °C 1.8 °C 1030.4 hPa Calm     92% 0 mm 0 W/m2
02:39 3.1 °C 1.8 °C 1030.4 hPa Calm     92% 0 mm 0 W/m2
02:44 3.1 °C 1.9 °C 1030 hPa Calm     92% 0 mm 0 W/m2
02:49 3.1 °C 1.9 °C 1030 hPa Calm     92% 0 mm 0 W/m2
02:54 3.2 °C 2 °C 1030 hPa Calm     92% 0 mm 0 W/m2
02:59 3.2 °C 2.1 °C 1030 hPa Calm     92.4% 0 mm 0 W/m2
03:04 3.3 °C 2.3 °C 1030 hPa Calm     93% 0 mm 0 W/m2
03:09 3.3 °C 2.3 °C 1030 hPa Calm     93% 0 mm 0 W/m2
03:14 3.3 °C 2.3 °C 1030 hPa Calm     93% 0 mm 0 W/m2
03:19 3.3 °C 2.3 °C 1030 hPa Calm     93% 0 mm 0 W/m2
03:24 3.3 °C 2.3 °C 1030 hPa Calm     93% 0 mm 0 W/m2
03:29 3.4 °C 2.4 °C 1030 hPa Calm     93% 0 mm 0 W/m2
03:34 3.4 °C 2.4 °C 1030 hPa Calm     93% 0 mm 0 W/m2
03:39 3.5 °C 2.4 °C 1029.7 hPa Calm     92.8% 0 mm 0 W/m2
03:44 3.5 °C 2.4 °C 1029.7 hPa Calm     92.6% 0 mm 0 W/m2
03:49 3.5 °C 2.3 °C 1029.7 hPa Calm     92.3% 0 mm 0 W/m2
03:54 3.6 °C 2.4 °C 1029.7 hPa Calm     92.2% 0 mm 0 W/m2
03:59 3.6 °C 2.3 °C 1029.7 hPa Calm     92% 0 mm 0 W/m2
04:04 3.6 °C 2.5 °C 1029.7 hPa Calm     92.6% 0 mm 0 W/m2
04:09 3.6 °C 2.6 °C 1029.7 hPa Calm     92.8% 0 mm 0 W/m2
04:14 3.7 °C 2.6 °C 1029.7 hPa Calm     92.6% 0 mm 0 W/m2
04:19 3.7 °C 2.7 °C 1029.7 hPa Calm     93% 0 mm 0 W/m2
04:24 3.7 °C 2.7 °C 1029.3 hPa Calm     93% 0 mm 0 W/m2
04:28 3.7 °C 2.7 °C 1029.3 hPa Calm     93% 0 mm 0 W/m2
04:34 3.7 °C 2.7 °C 1029.3 hPa Calm     93% 0 mm 0 W/m2
04:39 3.7 °C 2.7 °C 1029.3 hPa Calm     93% 0 mm 0 W/m2
04:44 3.7 °C 2.7 °C 1029.3 hPa Calm     93% 0 mm 0 W/m2
04:49 3.8 °C 2.8 °C 1029.3 hPa Calm     93% 0 mm 0 W/m2
04:54 3.8 °C 2.8 °C 1029 hPa Calm     93% 0 mm 0 W/m2
04:59 3.8 °C 2.8 °C 1029 hPa Calm     93% 0 mm 0 W/m2
05:04 3.8 °C 2.8 °C 1029 hPa Calm     93% 0 mm 0 W/m2
05:09 3.8 °C 2.8 °C 1029 hPa Calm     93% 0 mm 0 W/m2
05:14 3.9 °C 2.9 °C 1029 hPa Calm     93% 0 mm 0 W/m2
05:19 3.8 °C 2.8 °C 1029 hPa Calm     93% 0 mm 0 W/m2
05:24 3.9 °C 2.9 °C 1028.7 hPa Calm     93% 0 mm 0 W/m2
05:29 4 °C 3 °C 1028.7 hPa Calm     93% 0 mm 0 W/m2
05:34 4 °C 3 °C 1028.7 hPa Calm     93% 0 mm 0 W/m2
05:39 4 °C 3 °C 1028.7 hPa Calm     93% 0 mm 0 W/m2
05:44 4 °C 3 °C 1029 hPa Calm     93% 0 mm 0 W/m2
05:49 4.1 °C 3.1 °C 1029 hPa Calm     93% 0 mm 0 W/m2
05:54 4.1 °C 3.1 °C 1028.7 hPa Calm     93% 0 mm 0 W/m2
05:59 4.1 °C 3.1 °C 1028.7 hPa Calm     93% 0 mm 0 W/m2
06:04 4.1 °C 3.1 °C 1029 hPa Calm     93% 0 mm 0 W/m2
06:09 4.2 °C 3.2 °C 1029 hPa Calm     93% 0 mm 0 W/m2
06:14 4.2 °C 3.2 °C 1029 hPa Calm     93% 0 mm 0 W/m2
06:19 4.2 °C 3.2 °C 1029 hPa Calm     93% 0 mm 0 W/m2
06:24 4.3 °C 3.3 °C 1029 hPa Calm     93% 0 mm 0 W/m2
06:29 4.3 °C 3.3 °C 1029 hPa Calm     93% 0 mm 0 W/m2
06:34 4.3 °C 3.3 °C 1029 hPa Calm     93% 0 mm 0 W/m2
06:39 4.3 °C 3.3 °C 1029 hPa Calm     93% 0 mm 0 W/m2
06:44 4.4 °C 3.4 °C 1029 hPa Calm     93% 0 mm 0 W/m2
06:49 4.4 °C 3.4 °C 1028.7 hPa Calm     93% 0 mm 0 W/m2
06:54 4.4 °C 3.4 °C 1028.7 hPa Calm     93% 0 mm 0 W/m2
06:59 4.4 °C 3.4 °C 1029 hPa Calm     93% 0 mm 0 W/m2
07:04 4.4 °C 3.4 °C 1029 hPa Calm     93% 0 mm 0 W/m2
07:09 4.4 °C 3.4 °C 1029 hPa Calm     93% 0 mm 0 W/m2
07:14 4.4 °C 3.4 °C 1029 hPa Calm     93% 0 mm 0 W/m2
07:19 4.4 °C 3.4 °C 1029 hPa Calm     93% 0 mm 0 W/m2
07:24 4.4 °C 3.4 °C 1029 hPa Calm     93% 0 mm 0 W/m2
07:29 4.4 °C 3.4 °C 1029 hPa Calm     93% 0 mm 0 W/m2
07:34 4.4 °C 3.4 °C 1029 hPa Calm     93% 0 mm 0 W/m2
07:39 4.4 °C 3.4 °C 1029 hPa Calm     93% 0 mm 0 W/m2
07:44 4.5 °C 3.5 °C 1029 hPa Calm     93% 0 mm 0 W/m2
07:49 4.4 °C 3.4 °C 1029 hPa Calm     93% 0 mm 0 W/m2
07:54 4.4 °C 3.4 °C 1029 hPa Calm     93% 0 mm 0 W/m2
07:59 4.4 °C 3.4 °C 1029 hPa West 1 km/h 3.2 km/h 93% 0 mm 0 W/m2
08:04 4.5 °C 3.5 °C 1029 hPa West 2.4 km/h 4.8 km/h 93% 0 mm 5 W/m2
08:09 4.6 °C 3.6 °C 1029 hPa West 1.6 km/h 4.8 km/h 93% 0 mm 7 W/m2
08:14 4.7 °C 3.7 °C 1029 hPa West 0.6 km/h 3.2 km/h 93% 0 mm 12 W/m2
08:19 4.8 °C 3.8 °C 1029 hPa West 0.6 km/h 3.2 km/h 93% 0 mm 14 W/m2
08:24 4.8 °C 3.8 °C 1029 hPa Calm     93% 0 mm 18 W/m2
08:29 4.8 °C 3.6 °C 1029 hPa West 0.6 km/h 1.6 km/h 92% 0 mm 19 W/m2
08:34 4.8 °C 3.6 °C 1029 hPa West 1.9 km/h 3.2 km/h 92% 0 mm 19 W/m2
08:39 4.8 °C 3.6 °C 1029 hPa West 3.7 km/h 6.4 km/h 92% 0 mm 16 W/m2
08:44 4.8 °C 3.6 °C 1029 hPa West 2.3 km/h 4.8 km/h 91.2% 0 mm 19 W/m2
08:49 4.9 °C 3.6 °C 1029 hPa West 2.7 km/h 4.8 km/h 91% 0 mm 23 W/m2
08:54 4.9 °C 3.4 °C 1029 hPa West 1.1 km/h 3.2 km/h 90% 0 mm 26 W/m2
08:59 5 °C 3.4 °C 1029 hPa West 1.8 km/h 4.8 km/h 89.6% 0 mm 40 W/m2
09:04 5 °C 3.3 °C 1029 hPa West 3.2 km/h 4.8 km/h 89% 0 mm 49 W/m2
09:09 5.1 °C 3.3 °C 1029 hPa West 1.8 km/h 4.8 km/h 88.2% 0 mm 56 W/m2
09:14 5.1 °C 3.3 °C 1029 hPa West 0.3 km/h 3.2 km/h 88% 0 mm 56 W/m2
09:19 5.2 °C 3.2 °C 1028.7 hPa West 0.8 km/h 1.6 km/h 87.2% 0 mm 60 W/m2
09:24 5.3 °C 3.2 °C 1028.7 hPa Calm   1.6 km/h 86.4% 0 mm 60 W/m2
09:29 5.4 °C 3.2 °C 1028.7 hPa Calm   1.6 km/h 86% 0 mm 60 W/m2
09:34 5.5 °C 3.2 °C 1028.7 hPa West 1.9 km/h 3.2 km/h 85% 0 mm 58 W/m2
09:39 5.6 °C 3.2 °C 1029 hPa West 0.6 km/h 3.2 km/h 84.8% 0 mm 58 W/m2
09:44 5.6 °C 3.1 °C 1028.7 hPa Calm   1.6 km/h 84% 0 mm 72 W/m2
09:49 5.7 °C 3.2 °C 1028.7 hPa WSW 0.6 km/h 3.2 km/h 83.8% 0 mm 77 W/m2
09:54 5.8 °C 3.2 °C 1028.7 hPa Calm   3.2 km/h 82.8% 0 mm 72 W/m2
09:59 6.1 °C 3.2 °C 1028.7 hPa WSW 0.3 km/h 3.2 km/h 81.6% 0 mm 69 W/m2
10:04 6.2 °C 3.1 °C 1028.7 hPa WSW 0.6 km/h 4.8 km/h 80.6% 0 mm 84 W/m2
10:09 6.3 °C 3.1 °C 1028.7 hPa WSW 0.8 km/h 3.2 km/h 80% 0 mm 81 W/m2
10:14 6.4 °C 3.1 °C 1028.7 hPa Calm   1.6 km/h 79.6% 0 mm 91 W/m2
10:19 6.5 °C 3.1 °C 1028.7 hPa WSW 0.6 km/h 3.2 km/h 79% 0 mm 120 W/m2
10:24 6.7 °C 3.2 °C 1028.7 hPa Calm     78.6% 0 mm 134 W/m2
10:29 6.7 °C 3.1 °C 1028.7 hPa Calm     77.8% 0 mm 125 W/m2
10:34 6.9 °C 3.3 °C 1028.7 hPa Calm     77.8% 0 mm 123 W/m2
10:39 7.2 °C 3.4 °C 1028.3 hPa Calm     77.2% 0 mm 120 W/m2
10:44 7.2 °C 3.4 °C 1028.3 hPa Calm     76.8% 0 mm 113 W/m2
10:49 7.2 °C 3.3 °C 1028.3 hPa Calm     76.2% 0 mm 114 W/m2
10:54 7.3 °C 3.4 °C 1028.3 hPa Calm     77% 0 mm 128 W/m2
10:59 7.4 °C 3.6 °C 1028.3 hPa Calm     76.6% 0 mm 128 W/m2
11:04 7.7 °C 3.7 °C 1028 hPa WSW 1.3 km/h 6.4 km/h 76% 0 mm 128 W/m2
11:09 7.8 °C 3.6 °C 1028 hPa SSW 6.9 km/h 12.9 km/h 74.8% 0 mm 123 W/m2
11:14 7.8 °C 3.6 °C 1028 hPa SSW 1.4 km/h 9.7 km/h 74% 0 mm 137 W/m2
11:19 7.9 °C 3.5 °C 1027.7 hPa WSW 9.3 km/h 14.5 km/h 73.4% 0 mm 128 W/m2
11:24 7.8 °C 3.3 °C 1027.7 hPa WSW 5.5 km/h 11.3 km/h 73% 0 mm 149 W/m2
11:29 7.9 °C 3.3 °C 1027.7 hPa WSW 7.9 km/h 12.9 km/h 72.6% 0 mm 165 W/m2
11:34 8.1 °C 3.4 °C 1027.7 hPa WSW 3.9 km/h 11.3 km/h 71.8% 0 mm 285 W/m2
11:39 8.4 °C 3.4 °C 1027.3 hPa WSW 6 km/h 11.3 km/h 71% 0 mm 285 W/m2
11:44 8.7 °C 3.5 °C 1027.3 hPa WSW 8.9 km/h 14.5 km/h 70% 0 mm 272 W/m2
11:49 8.8 °C 3.6 °C 1027.3 hPa WSW 8.5 km/h 14.5 km/h 69.8% 0 mm 274 W/m2
11:54 9 °C 3.6 °C 1027.3 hPa WSW 11.1 km/h 17.7 km/h 68.8% 0 mm 269 W/m2
11:59 9.1 °C 3.8 °C 1027 hPa WSW 8.2 km/h 17.7 km/h 69.6% 0 mm 251 W/m2
12:04 9.1 °C 3.7 °C 1027 hPa WSW 7.2 km/h 12.9 km/h 68.8% 0 mm 188 W/m2
12:09 9.2 °C 3.5 °C 1027 hPa WSW 7.1 km/h 17.7 km/h 67.8% 0 mm 206 W/m2
12:14 9.2 °C 3 °C 1026.6 hPa SW 7.7 km/h 17.7 km/h 65.4% 0 mm 207 W/m2
12:19 9.2 °C 2.5 °C 1026.6 hPa SW 7.7 km/h 14.5 km/h 63.4% 0 mm 206 W/m2
12:24 9.2 °C 2.6 °C 1026.6 hPa WSW 5.6 km/h 12.9 km/h 63.8% 0 mm 193 W/m2
12:29 9.2 °C 2.6 °C 1026.6 hPa WSW 5.8 km/h 12.9 km/h 63.6% 0 mm 197 W/m2
12:33 9.2 °C 2.8 °C 1026.6 hPa WSW 7.7 km/h 12.9 km/h 64.3% 0 mm 149 W/m2
12:39 9.2 °C 2.7 °C 1026.3 hPa WSW 5.8 km/h 9.7 km/h 64% 0 mm 174 W/m2
12:44 9.3 °C 2.8 °C 1026.3 hPa WSW 3.5 km/h 11.3 km/h 64.2% 0 mm 195 W/m2
12:49 9.7 °C 3.2 °C 1026.3 hPa WSW 3.5 km/h 8 km/h 64% 0 mm 232 W/m2
12:54 9.8 °C 3.3 °C 1026 hPa WSW 9.7 km/h 19.3 km/h 64% 0 mm 230 W/m2
12:59 9.7 °C 3.2 °C 1026 hPa SW 9.5 km/h 24.1 km/h 63.8% 0 mm 216 W/m2
13:04 9.7 °C 3.3 °C 1026 hPa SW 7.1 km/h 11.3 km/h 64.4% 0 mm 202 W/m2
13:09 9.8 °C 3.5 °C 1026 hPa SSW 4.3 km/h 9.7 km/h 65% 0 mm 193 W/m2
13:14 9.9 °C 3.6 °C 1025.6 hPa SW 5.6 km/h 11.3 km/h 65% 0 mm 185 W/m2
13:19 9.7 °C 3.5 °C 1025.6 hPa SW 4.7 km/h 11.3 km/h 65.4% 0 mm 188 W/m2
13:24 9.7 °C 3.8 °C 1025.6 hPa SW 3.2 km/h 11.3 km/h 66.6% 0 mm 185 W/m2
13:29 9.5 °C 3.8 °C 1025.6 hPa WSW 9 km/h 12.9 km/h 67.2% 0 mm 163 W/m2
13:34 9.3 °C 3.9 °C 1025.3 hPa SW 9.7 km/h 16.1 km/h 69.4% 0 mm 162 W/m2
13:39 9.3 °C 4.3 °C 1025.3 hPa SW 2.3 km/h 9.7 km/h 71% 0 mm 156 W/m2
13:44 9.7 °C 4.7 °C 1025.3 hPa SW 6 km/h 14.5 km/h 71% 0 mm 160 W/m2
13:49 9.7 °C 4.7 °C 1025.3 hPa SW 5.1 km/h 14.5 km/h 71% 0 mm 178 W/m2
13:54 9.6 °C 4.7 °C 1025.6 hPa SSW 6.6 km/h 14.5 km/h 71.6% 0 mm 188 W/m2
13:59 9.7 °C 4.9 °C 1025.3 hPa SSW 7.2 km/h 11.3 km/h 72% 0 mm 185 W/m2
14:04 9.8 °C 5.1 °C 1025.3 hPa WSW 5.8 km/h 12.9 km/h 72.2% 0 mm 171 W/m2
14:09 9.8 °C 5.1 °C 1025.3 hPa SW 8.2 km/h 12.9 km/h 72.8% 0 mm 163 W/m2
14:14 9.6 °C 5 °C 1025.3 hPa SW 7.9 km/h 12.9 km/h 73% 0 mm 163 W/m2
14:19 9.6 °C 5 °C 1024.9 hPa SW 7.4 km/h 12.9 km/h 73.2% 0 mm 123 W/m2
14:24 9.4 °C 4.9 °C 1024.9 hPa SSW 6.1 km/h 11.3 km/h 73.4% 0 mm 79 W/m2
14:29 9.2 °C 4.6 °C 1024.9 hPa SSW 6.8 km/h 14.5 km/h 73% 0 mm 67 W/m2
14:34 9.1 °C 4.5 °C 1024.9 hPa SW 7.7 km/h 14.5 km/h 73.2% 0 mm 70 W/m2
14:39 9.1 °C 4.7 °C 1024.9 hPa SW 4 km/h 11.3 km/h 74% 0 mm 100 W/m2
14:44 9.3 °C 4.9 °C 1024.9 hPa SW 0.8 km/h 6.4 km/h 74% 0 mm 95 W/m2
14:49 9.7 °C 5.3 °C 1024.9 hPa Calm   4.8 km/h 73.8% 0 mm 88 W/m2
14:54 9.8 °C 5.1 °C 1024.9 hPa SW 3.9 km/h 9.7 km/h 72.4% 0 mm 79 W/m2
14:59 9.7 °C 5.1 °C 1024.9 hPa SW 3.1 km/h 8 km/h 72.8% 0 mm 69 W/m2
15:04 9.6 °C 5.1 °C 1024.9 hPa SW 4 km/h 9.7 km/h 73% 0 mm 54 W/m2
15:09 9.6 °C 5.1 °C 1024.9 hPa SW 6.8 km/h 11.3 km/h 73.6% 0 mm 51 W/m2
15:14 9.6 °C 4.9 °C 1024.9 hPa SW 5.5 km/h 12.9 km/h 73% 0 mm 47 W/m2
15:19 9.5 °C 4.9 °C 1024.9 hPa SW 2.6 km/h 9.7 km/h 73% 0 mm 42 W/m2
15:24 9.5 °C 4.9 °C 1024.9 hPa SW 4.8 km/h 9.7 km/h 73% 0 mm 37 W/m2
15:29 9.4 °C 5.1 °C 1024.9 hPa SW 4.8 km/h 9.7 km/h 74% 0 mm 32 W/m2
15:34 9.4 °C 5 °C 1024.9 hPa SW 5.3 km/h 9.7 km/h 74% 0 mm 23 W/m2
15:39 9.3 °C 4.9 °C 1024.9 hPa SW 4.8 km/h 9.7 km/h 74% 0 mm 21 W/m2
15:44 9.2 °C 4.7 °C 1024.9 hPa SW 2.7 km/h 8 km/h 74% 0 mm 16 W/m2
15:49 8.9 °C 4.6 °C 1024.9 hPa SW 3.2 km/h 9.7 km/h 74% 0 mm 12 W/m2
15:54 8.8 °C 4.5 °C 1024.9 hPa SW 2.6 km/h 9.7 km/h 74.6% 0 mm 11 W/m2
15:59 8.7 °C 4.5 °C 1024.9 hPa SW 1 km/h 6.4 km/h 75% 0 mm 9 W/m2
16:04 8.7 °C 4.5 °C 1024.9 hPa Calm   3.2 km/h 75% 0 mm 7 W/m2
16:08 8.7 °C 4.4 °C 1024.9 hPa Calm   1.6 km/h 75% 0 mm 0 W/m2
16:14 8.6 °C 4.6 °C 1024.9 hPa Calm     75.8% 0 mm 0 W/m2
16:19 8.4 °C 4.4 °C 1024.9 hPa Calm     76% 0 mm 0 W/m2
16:24 8.4 °C 4.4 °C 1024.9 hPa Calm     76% 0 mm 0 W/m2
16:29 8.4 °C 4.4 °C 1024.9 hPa Calm     76% 0 mm 0 W/m2
16:34 8.2 °C 4.2 °C 1024.9 hPa Calm     76% 0 mm 0 W/m2
16:39 8 °C 4.2 °C 1024.9 hPa Calm     77% 0 mm 0 W/m2
16:44 7.7 °C 3.8 °C 1024.6 hPa Calm     77% 0 mm 0 W/m2
16:49 7.3 °C 3.4 °C 1024.6 hPa Calm     77% 0 mm 0 W/m2
16:54 7 °C 3.2 °C 1024.6 hPa Calm     77.2% 0 mm 0 W/m2
16:59 6.7 °C 3.2 °C 1024.6 hPa Calm     78% 0 mm 0 W/m2
17:04 6.6 °C 2.9 °C 1024.6 hPa Calm     78% 0 mm 0 W/m2
17:09 6.3 °C 2.7 °C 1024.6 hPa Calm     78% 0 mm 0 W/m2
17:14 6.2 °C 2.6 °C 1024.3 hPa Calm     78% 0 mm 0 W/m2
17:19 5.8 °C 2.4 °C 1024.3 hPa Calm     78.8% 0 mm 0 W/m2
17:24 5.7 °C 2.4 °C 1024.6 hPa Calm     79.8% 0 mm 0 W/m2
17:29 5.5 °C 2.5 °C 1024.6 hPa SW 1.3 km/h 3.2 km/h 81% 0 mm 0 W/m2
17:34 5.4 °C 2.6 °C 1024.6 hPa Calm   1.6 km/h 82% 0 mm 0 W/m2
17:39 5.3 °C 2.5 °C 1024.6 hPa Calm   1.6 km/h 82% 0 mm 0 W/m2
17:44 5.3 °C 2.6 °C 1024.6 hPa Calm     83% 0 mm 0 W/m2
17:49 5.2 °C 2.5 °C 1024.6 hPa SW 0.3 km/h 1.6 km/h 83% 0 mm 0 W/m2
17:54 5.2 °C 2.6 °C 1024.3 hPa Calm     83.4% 0 mm 0 W/m2
17:59 5.1 °C 2.6 °C 1024.6 hPa Calm     84% 0 mm 0 W/m2
18:04 5.1 °C 2.6 °C 1024.3 hPa Calm     84% 0 mm 0 W/m2
18:09 5.1 °C 2.6 °C 1024.3 hPa Calm     84% 0 mm 0 W/m2
18:14 5.1 °C 2.7 °C 1024.3 hPa Calm     84.4% 0 mm 0 W/m2
18:19 5.1 °C 2.7 °C 1024.3 hPa Calm     85% 0 mm 0 W/m2
18:24 5.1 °C 2.8 °C 1024.3 hPa Calm     85% 0 mm 0 W/m2
18:29 4.9 °C 2.7 °C 1024.3 hPa Calm     85% 0 mm 0 W/m2
18:34 4.9 °C 2.6 °C 1024.3 hPa Calm     85% 0 mm 0 W/m2
18:39 4.8 °C 2.5 °C 1024.3 hPa Calm     85% 0 mm 0 W/m2
18:44 4.7 °C 2.5 °C 1024.3 hPa Calm     85.2% 0 mm 0 W/m2
18:49 4.7 °C 2.6 °C 1024.3 hPa Calm     86% 0 mm 0 W/m2
18:54 4.7 °C 2.6 °C 1024.3 hPa Calm     86% 0 mm 0 W/m2
18:59 4.7 °C 2.6 °C 1024.3 hPa Calm     86% 0 mm 0 W/m2
19:04 4.8 °C 2.7 °C 1024.3 hPa Calm     86% 0 mm 0 W/m2
19:09 4.7 °C 2.6 °C 1023.9 hPa Calm     86% 0 mm 0 W/m2
19:14 4.6 °C 2.5 °C 1023.9 hPa Calm     86% 0 mm 0 W/m2
19:19 4.6 °C 2.6 °C 1023.9 hPa Calm     87% 0 mm 0 W/m2
19:24 4.6 °C 2.6 °C 1023.9 hPa Calm     87% 0 mm 0 W/m2
19:29 4.6 °C 2.6 °C 1023.9 hPa Calm     87% 0 mm 0 W/m2
19:34 4.6 °C 2.6 °C 1023.9 hPa Calm     87% 0 mm 0 W/m2
19:39 4.6 °C 2.6 °C 1023.9 hPa Calm     87% 0 mm 0 W/m2
19:44 4.4 °C 2.4 °C 1023.9 hPa Calm     87% 0 mm 0 W/m2
19:49 4.3 °C 2.3 °C 1023.9 hPa Calm     87% 0 mm 0 W/m2
19:54 4.3 °C 2.3 °C 1023.9 hPa Calm     87.2% 0 mm 0 W/m2
19:59 4.2 °C 2.4 °C 1023.6 hPa Calm     88% 0 mm 0 W/m2
20:04 4.1 °C 2.2 °C 1023.6 hPa Calm     87.5% 0 mm 0 W/m2
20:09 4 °C 2.2 °C 1023.6 hPa Calm     88% 0 mm 0 W/m2
20:14 3.9 °C 2.2 °C 1023.6 hPa Calm     88% 0 mm 0 W/m2
20:19 3.8 °C 2 °C 1023.6 hPa Calm     88% 0 mm 0 W/m2
20:24 3.7 °C 1.9 °C 1023.6 hPa Calm     88% 0 mm 0 W/m2
20:29 3.6 °C 1.8 °C 1023.6 hPa Calm     88% 0 mm 0 W/m2
20:34 3.6 °C 1.8 °C 1023.6 hPa Calm     88% 0 mm 0 W/m2
20:39 3.4 °C 1.6 °C 1023.2 hPa Calm     88% 0 mm 0 W/m2
20:44 3.4 °C 1.6 °C 1023.2 hPa Calm     88% 0 mm 0 W/m2
20:49 3.3 °C 1.7 °C 1023.2 hPa Calm     89% 0 mm 0 W/m2
20:54 3.2 °C 1.6 °C 1023.2 hPa Calm     88.8% 0 mm 0 W/m2
20:59 3.1 °C 1.5 °C 1023.2 hPa Calm     89% 0 mm 0 W/m2
21:04 3.1 °C 1.5 °C 1023.2 hPa Calm     89% 0 mm 0 W/m2
21:09 3 °C 1.4 °C 1023.6 hPa Calm     89% 0 mm 0 W/m2
21:14 3.1 °C 1.4 °C 1023.6 hPa Calm     89% 0 mm 0 W/m2
21:19 2.9 °C 1.3 °C 1023.2 hPa Calm     89% 0 mm 0 W/m2
21:23 2.8 °C 1.2 °C 1023.2 hPa Calm     89% 0 mm 0 W/m2
21:29 2.8 °C 1.2 °C 1023.2 hPa Calm     89% 0 mm 0 W/m2
21:34 2.7 °C 1.1 °C 1023.2 hPa Calm     89% 0 mm 0 W/m2
21:39 2.7 °C 1.1 °C 1023.2 hPa Calm     89% 0 mm 0 W/m2
21:43 2.7 °C 1.1 °C 1023.2 hPa Calm     89% 0 mm 0 W/m2
21:49 2.6 °C 1.1 °C 1023.2 hPa Calm     89.8% 0 mm 0 W/m2
21:54 2.6 °C 1.1 °C 1023.2 hPa Calm     90% 0 mm 0 W/m2
21:59 2.6 °C 1.1 °C 1023.2 hPa Calm     90% 0 mm 0 W/m2
22:04 2.6 °C 1.1 °C 1023.2 hPa Calm     90% 0 mm 0 W/m2
22:09 2.4 °C 0.9 °C 1023.2 hPa Calm     90% 0 mm 0 W/m2
22:14 2.3 °C 0.8 °C 1022.9 hPa Calm     90% 0 mm 0 W/m2
22:19 2.3 °C 0.8 °C 1023.2 hPa Calm     90% 0 mm 0 W/m2
22:24 2.3 °C 0.8 °C 1022.9 hPa Calm     90% 0 mm 0 W/m2
22:29 2.3 °C 0.8 °C 1022.9 hPa Calm     90% 0 mm 0 W/m2
22:34 2.2 °C 0.7 °C 1022.9 hPa Calm     90% 0 mm 0 W/m2
22:39 2.2 °C 0.7 °C 1022.9 hPa Calm     90% 0 mm 0 W/m2
22:44 2.1 °C 0.6 °C 1022.9 hPa Calm     90% 0 mm 0 W/m2
22:49 1.9 °C 0.4 °C 1022.9 hPa Calm     90% 0 mm 0 W/m2
22:54 1.8 °C 0.5 °C 1022.9 hPa Calm     90.6% 0 mm 0 W/m2
22:59 1.8 °C 0.3 °C 1022.9 hPa Calm     90% 0 mm 0 W/m2
23:04 1.9 °C 0.6 °C 1022.9 hPa Calm     91% 0 mm 0 W/m2
23:09 1.9 °C 0.6 °C 1022.9 hPa Calm     91% 0 mm 0 W/m2
23:14 1.9 °C 0.6 °C 1022.9 hPa Calm     91% 0 mm 0 W/m2
23:19 1.8 °C 0.5 °C 1022.9 hPa Calm     91% 0 mm 0 W/m2
23:24 1.7 °C 0.3 °C 1022.9 hPa Calm     91% 0 mm 0 W/m2
23:29 1.6 °C 0.3 °C 1022.9 hPa Calm     91% 0 mm 0 W/m2
23:34 1.6 °C 0.3 °C 1022.9 hPa Calm     91% 0 mm 0 W/m2
23:39 1.6 °C 0.3 °C 1022.9 hPa Calm     91% 0 mm 0 W/m2
23:44 1.6 °C 0.3 °C 1022.6 hPa Calm     91% 0 mm 0 W/m2
23:49 1.6 °C 0.2 °C 1022.6 hPa Calm     91% 0 mm 0 W/m2
23:54 1.4 °C 0.2 °C 1022.6 hPa Calm     91% 0 mm 0 W/m2
23:59 1.4 °C 0.1 °C 1022.6 hPa Calm     91% 0 mm 0 W/m2
Bath Spa Weather
Compliments of Weather Underground - 2 mb